logo
Search for airport 
image banner adimage banner adimage banner ad
image banner ad

05VT - Port Of Highgate Springs

Located in Highgate Springs, United States

ICAO - 05VT, IATA -

Data provided by Airmate  

General information

Coordinates: N45°0'48" W73°5'12"
Elevation is 68 feet MSL.
 
View others Airports in Vermont

Operational data

Special qualification required
Current time UTC:
Current local time:
Weather at : KFSO - Franklin County State ( 8 km )
METAR: KFSO 131515Z AUTO 20009G18KT 180V260 10SM BKN060 10/02 A2938 RMK AO2 T01040020
View NOTAMs / SUP AIP / TFR affecting this airport [VIEW]
Communications frequencies: [VIEW]

Runways:

Airport contact information

Address: Highgate Springs United States

Satellite view of 05VT